createdAt,value
2023-03-26T00:00:45.755Z,3.20
2023-03-26T00:03:13.095Z,3.73
2023-03-26T00:05:39.944Z,3.47
2023-03-26T00:08:08.998Z,4.07
2023-03-26T00:10:36.677Z,3.93
2023-03-26T00:13:04.462Z,3.00
2023-03-26T00:15:31.472Z,3.40
2023-03-26T00:17:58.094Z,3.77
2023-03-26T00:20:24.729Z,3.60
2023-03-26T00:22:51.176Z,3.63
2023-03-26T00:25:17.733Z,3.50
2023-03-26T00:27:45.663Z,3.60
2023-03-26T00:30:12.718Z,3.80
2023-03-26T00:32:39.348Z,3.67
2023-03-26T00:35:06.263Z,3.03
2023-03-26T00:37:33.921Z,3.50
2023-03-26T00:40:10.174Z,3.20
2023-03-26T00:42:38.455Z,4.60
2023-03-26T00:45:07.327Z,3.70
2023-03-26T00:47:34.651Z,3.10
2023-03-26T00:50:01.479Z,3.37
2023-03-26T00:52:28.853Z,2.83
2023-03-26T00:54:55.690Z,2.93
2023-03-26T00:57:34.602Z,2.47
2023-03-26T01:00:15.945Z,2.53
2023-03-26T01:02:45.259Z,2.53
2023-03-26T01:05:35.127Z,2.50
2023-03-26T01:08:18.102Z,2.43
2023-03-26T01:10:50.734Z,2.20
2023-03-26T01:13:23.105Z,2.03
2023-03-26T01:15:51.101Z,2.77
2023-03-26T01:18:21.115Z,3.30
2023-03-26T01:20:49.852Z,2.80
2023-03-26T01:23:23.918Z,3.07
2023-03-26T01:26:05.568Z,2.70
2023-03-26T01:28:35.390Z,3.20
2023-03-26T01:31:14.206Z,4.00
2023-03-26T01:33:49.114Z,2.80
2023-03-26T01:36:28.835Z,2.73
2023-03-26T01:39:18.653Z,3.30
2023-03-26T01:41:48.792Z,2.43
2023-03-26T01:44:30.810Z,3.83
2023-03-26T01:47:00.495Z,2.37
2023-03-26T01:49:29.045Z,3.30
2023-03-26T01:51:57.852Z,3.43
2023-03-26T01:54:28.382Z,3.40
2023-03-26T01:57:16.425Z,3.30
2023-03-26T02:00:11.256Z,3.50
2023-03-26T02:03:18.117Z,3.00
2023-03-26T02:05:48.204Z,3.90
2023-03-26T02:08:36.129Z,3.00
2023-03-26T02:11:11.554Z,3.30
2023-03-26T02:13:44.419Z,3.50
2023-03-26T02:16:16.171Z,2.17
2023-03-26T02:18:51.226Z,2.30
2023-03-26T02:21:20.247Z,3.10
2023-03-26T02:23:57.698Z,2.33
2023-03-26T02:26:25.196Z,2.40
2023-03-26T02:29:11.364Z,2.30
2023-03-26T02:31:40.670Z,2.50
2023-03-26T02:34:07.246Z,2.33
2023-03-26T02:36:36.849Z,2.40
2023-03-26T02:39:04.844Z,1.77
2023-03-26T02:41:34.934Z,2.50
2023-03-26T02:44:06.314Z,1.90
2023-03-26T02:46:53.362Z,2.10
2023-03-26T02:49:38.245Z,2.47
2023-03-26T02:52:06.545Z,2.30
2023-03-26T02:54:35.083Z,2.10
2023-03-26T02:57:15.538Z,1.90
2023-03-26T03:00:15.051Z,1.63
2023-03-26T03:02:48.273Z,2.10
2023-03-26T03:05:33.765Z,2.10
2023-03-26T03:08:12.320Z,2.33
2023-03-26T03:11:11.731Z,2.33
2023-03-26T03:13:48.058Z,2.50
2023-03-26T03:16:18.476Z,2.30
2023-03-26T03:18:45.127Z,2.10
2023-03-26T03:21:11.658Z,2.30
2023-03-26T03:23:38.398Z,2.40
2023-03-26T03:26:16.968Z,2.27
2023-03-26T03:28:50.835Z,2.47
2023-03-26T03:31:18.394Z,2.43
2023-03-26T03:33:46.384Z,3.57
2023-03-26T03:36:20.537Z,2.00
2023-03-26T03:38:53.830Z,2.67
2023-03-26T03:41:21.987Z,2.50
2023-03-26T03:43:48.838Z,2.33
2023-03-26T03:46:20.595Z,3.47
2023-03-26T03:48:49.815Z,2.33
2023-03-26T03:51:21.472Z,2.70
2023-03-26T03:53:51.035Z,2.83
2023-03-26T03:56:27.484Z,2.47
2023-03-26T03:59:12.589Z,2.73
2023-03-26T04:01:39.117Z,2.67
2023-03-26T04:04:13.170Z,3.47
2023-03-26T04:06:58.224Z,3.37
2023-03-26T04:09:29.179Z,3.03
2023-03-26T04:11:59.869Z,3.07
2023-03-26T04:14:35.907Z,3.17
2023-03-26T04:17:07.333Z,2.90
2023-03-26T04:19:37.524Z,2.70
2023-03-26T04:22:07.217Z,2.10
2023-03-26T04:24:42.278Z,2.30
2023-03-26T04:27:14.779Z,2.93
2023-03-26T04:29:43.709Z,2.73
2023-03-26T04:32:26.482Z,2.53
2023-03-26T04:34:54.520Z,2.27
2023-03-26T04:37:44.336Z,2.00
2023-03-26T04:40:20.484Z,1.90
2023-03-26T04:42:58.334Z,2.07
2023-03-26T04:45:48.226Z,2.10
2023-03-26T04:48:16.478Z,2.77
2023-03-26T04:50:45.156Z,1.80
2023-03-26T04:53:15.558Z,1.77
2023-03-26T04:56:27.729Z,1.80
2023-03-26T04:59:08.042Z,1.63
2023-03-26T05:01:40.122Z,2.40
2023-03-26T05:04:08.314Z,1.67
2023-03-26T05:06:35.058Z,2.10
2023-03-26T05:09:08.484Z,1.73
2023-03-26T05:12:01.183Z,1.93
2023-03-26T05:14:27.749Z,1.60
2023-03-26T05:16:54.724Z,2.00
2023-03-26T05:19:22.180Z,2.07
2023-03-26T05:21:48.629Z,1.33
2023-03-26T05:24:15.123Z,2.13
2023-03-26T05:26:41.651Z,2.97
2023-03-26T05:29:08.239Z,1.80
2023-03-26T05:31:40.336Z,1.63
2023-03-26T05:34:06.946Z,2.00
2023-03-26T05:36:33.724Z,1.90
2023-03-26T05:39:29.881Z,2.47
2023-03-26T05:42:14.704Z,1.50
2023-03-26T05:44:57.037Z,1.87
2023-03-26T05:47:27.389Z,1.70
2023-03-26T05:49:54.397Z,1.73
2023-03-26T05:52:21.016Z,1.97
2023-03-26T05:55:10.485Z,1.77
2023-03-26T05:57:55.457Z,1.73
2023-03-26T06:00:40.508Z,1.97
2023-03-26T06:03:12.604Z,2.50
2023-03-26T06:06:17.385Z,2.00
2023-03-26T06:09:01.766Z,2.90
2023-03-26T06:11:31.803Z,2.13
2023-03-26T06:14:00.385Z,2.30
2023-03-26T06:16:28.249Z,2.13
2023-03-26T06:19:15.760Z,2.30
2023-03-26T06:22:12.316Z,2.40
2023-03-26T06:25:05.206Z,2.13
2023-03-26T06:27:45.036Z,2.50
2023-03-26T06:30:46.982Z,2.53
2023-03-26T06:33:24.408Z,2.10
2023-03-26T06:35:51.401Z,2.43
2023-03-26T06:38:18.127Z,2.20
2023-03-26T06:40:44.849Z,2.17
2023-03-26T06:43:36.293Z,2.10
2023-03-26T06:46:03.720Z,2.27
2023-03-26T06:48:56.117Z,2.20
2023-03-26T06:51:41.395Z,2.47
2023-03-26T06:54:08.015Z,2.27
2023-03-26T06:56:49.164Z,2.50
2023-03-26T06:59:34.627Z,2.87
2023-03-26T07:02:20.087Z,2.20
2023-03-26T07:05:05.573Z,2.30
2023-03-26T07:07:58.237Z,2.40
2023-03-26T07:10:43.256Z,2.63
2023-03-26T07:13:17.340Z,2.33
2023-03-26T07:16:02.401Z,2.20
2023-03-26T07:18:49.466Z,2.10
2023-03-26T07:21:21.542Z,2.67
2023-03-26T07:23:48.730Z,2.70
2023-03-26T07:26:34.309Z,4.00
2023-03-26T07:29:21.795Z,2.77
2023-03-26T07:32:18.517Z,3.20
2023-03-26T07:35:20.334Z,3.17
2023-03-26T07:38:41.081Z,3.03
2023-03-26T07:41:44.773Z,3.10
2023-03-26T07:44:39.992Z,2.80
2023-03-26T07:47:31.448Z,3.20
2023-03-26T07:50:25.414Z,2.50
2023-03-26T07:53:09.387Z,3.03
2023-03-26T07:56:19.502Z,3.80
2023-03-26T07:59:11.890Z,3.43
2023-03-26T08:02:21.006Z,3.50
2023-03-26T08:05:19.672Z,3.17
2023-03-26T08:07:59.204Z,2.60
2023-03-26T08:10:43.032Z,2.97
2023-03-26T08:13:26.612Z,2.87
2023-03-26T08:16:19.339Z,2.90
2023-03-26T08:19:03.493Z,5.23
2023-03-26T08:21:54.626Z,3.30
2023-03-26T08:24:39.035Z,2.53
2023-03-26T08:27:18.603Z,3.90
2023-03-26T08:30:02.109Z,3.17
2023-03-26T08:32:29.386Z,3.63
2023-03-26T08:34:57.533Z,3.73
2023-03-26T08:37:24.100Z,4.30
2023-03-26T08:39:50.752Z,4.03
2023-03-26T08:42:26.600Z,3.90
2023-03-26T08:45:28.616Z,2.80
2023-03-26T08:48:24.426Z,2.97
2023-03-26T08:50:57.061Z,2.67
2023-03-26T08:53:55.090Z,4.07
2023-03-26T08:56:32.398Z,2.93
2023-03-26T08:59:26.923Z,3.60
2023-03-26T09:02:06.766Z,3.63
2023-03-26T09:04:52.073Z,3.47
2023-03-26T09:07:42.045Z,3.30
2023-03-26T09:10:36.425Z,2.50
2023-03-26T09:13:26.765Z,2.93
2023-03-26T09:16:11.431Z,3.00
2023-03-26T09:19:25.593Z,3.07
2023-03-26T09:22:04.300Z,2.70
2023-03-26T09:25:01.057Z,2.97
2023-03-26T09:28:20.553Z,2.83
2023-03-26T09:31:14.862Z,2.33
2023-03-26T09:34:18.861Z,2.57
2023-03-26T09:37:05.723Z,2.83
2023-03-26T09:39:46.798Z,2.20
2023-03-26T09:42:37.491Z,2.50
2023-03-26T09:45:24.060Z,2.87
2023-03-26T09:48:07.485Z,2.50
2023-03-26T09:50:52.488Z,3.20
2023-03-26T09:53:56.428Z,3.23
2023-03-26T09:56:32.728Z,2.80
2023-03-26T09:59:16.926Z,2.43
2023-03-26T10:02:12.137Z,3.10
2023-03-26T10:05:00.569Z,2.70
2023-03-26T10:07:51.700Z,3.20
2023-03-26T10:10:31.564Z,2.40
2023-03-26T10:13:14.462Z,2.60
2023-03-26T10:16:12.406Z,2.33
2023-03-26T10:19:05.265Z,2.70
2023-03-26T10:21:56.352Z,3.00
2023-03-26T10:24:44.715Z,3.83
2023-03-26T10:27:20.428Z,2.73
2023-03-26T10:30:05.851Z,2.43
2023-03-26T10:33:09.959Z,2.87
2023-03-26T10:35:50.736Z,3.23
2023-03-26T10:38:57.435Z,3.00
2023-03-26T10:41:51.184Z,3.67
2023-03-26T10:44:45.199Z,2.60
2023-03-26T10:47:26.981Z,2.57
2023-03-26T10:50:11.588Z,3.33
2023-03-26T10:52:46.716Z,3.40
2023-03-26T10:55:33.376Z,3.30
2023-03-26T10:58:03.013Z,3.30
2023-03-26T11:00:31.061Z,3.20
2023-03-26T11:03:18.196Z,2.20
2023-03-26T11:06:02.214Z,4.17
2023-03-26T11:08:44.072Z,2.73
2023-03-26T11:11:16.673Z,2.40
2023-03-26T11:13:53.725Z,2.60
2023-03-26T11:16:34.559Z,2.77
2023-03-26T11:19:16.494Z,3.40
2023-03-26T11:22:00.870Z,2.50
2023-03-26T11:25:09.630Z,2.80
2023-03-26T11:27:56.132Z,2.70
2023-03-26T11:30:43.916Z,2.40
2023-03-26T11:33:17.991Z,3.40
2023-03-26T11:35:51.144Z,3.10
2023-03-26T11:38:33.571Z,2.50
2023-03-26T11:41:02.756Z,2.70
2023-03-26T11:43:52.494Z,2.50
2023-03-26T11:46:22.748Z,2.47
2023-03-26T11:49:12.416Z,3.23
2023-03-26T11:51:41.267Z,2.00
2023-03-26T11:54:11.209Z,2.80
2023-03-26T11:57:04.597Z,2.53
2023-03-26T11:59:48.831Z,2.90
2023-03-26T12:02:33.923Z,3.00
2023-03-26T12:05:22.431Z,2.73
2023-03-26T12:07:53.079Z,2.90
2023-03-26T12:10:31.089Z,2.93
2023-03-26T12:13:06.417Z,3.13
2023-03-26T12:15:33.355Z,2.40
2023-03-26T12:18:22.993Z,2.53
2023-03-26T12:21:01.439Z,2.30
2023-03-26T12:24:01.396Z,2.50
2023-03-26T12:26:37.305Z,3.17
2023-03-26T12:29:10.406Z,2.60
2023-03-26T12:31:55.471Z,2.93
2023-03-26T12:34:31.656Z,2.97
2023-03-26T12:37:01.399Z,4.00
2023-03-26T12:40:07.208Z,2.80
2023-03-26T12:44:44.366Z,2.77
2023-03-26T12:45:24.144Z,2.00
2023-03-26T12:47:58.182Z,2.70
2023-03-26T12:50:40.787Z,3.10
2023-03-26T12:53:22.470Z,2.23
2023-03-26T12:56:00.214Z,2.83
2023-03-26T12:58:51.412Z,2.70
2023-03-26T13:01:23.672Z,2.80
2023-03-26T13:04:08.273Z,2.40
2023-03-26T13:07:04.336Z,2.20
2023-03-26T13:09:56.597Z,2.20
2023-03-26T13:12:48.887Z,2.40
2023-03-26T13:15:22.745Z,2.43
2023-03-26T13:18:02.220Z,2.70
2023-03-26T13:20:33.069Z,2.70
2023-03-26T13:23:27.137Z,2.50
2023-03-26T13:26:06.640Z,2.67
2023-03-26T13:28:53.960Z,2.90
2023-03-26T13:31:32.626Z,2.60
2023-03-26T13:34:09.887Z,2.80
2023-03-26T13:37:07.488Z,2.53
2023-03-26T13:39:57.041Z,2.70
2023-03-26T13:42:43.275Z,2.53
2023-03-26T13:45:34.432Z,2.60
2023-03-26T13:48:03.811Z,2.70
2023-03-26T13:50:35.413Z,2.30
2023-03-26T13:53:31.604Z,2.40
2023-03-26T13:56:00.263Z,2.73
2023-03-26T13:58:47.317Z,2.37
2023-03-26T14:01:19.461Z,2.30
2023-03-26T14:04:23.479Z,2.40
2023-03-26T14:07:01.314Z,2.60
2023-03-26T14:09:47.262Z,2.60
2023-03-26T14:12:37.313Z,3.07
2023-03-26T14:15:10.896Z,2.90
2023-03-26T14:17:46.381Z,2.10
2023-03-26T14:20:50.086Z,2.50
2023-03-26T14:23:52.958Z,3.20
2023-03-26T14:26:54.073Z,3.00
2023-03-26T14:29:58.389Z,2.43
2023-03-26T14:32:51.558Z,3.03
2023-03-26T14:35:31.700Z,2.40
2023-03-26T14:38:03.958Z,3.77
2023-03-26T14:40:35.776Z,2.40
2023-03-26T14:43:27.187Z,2.90
2023-03-26T14:46:21.167Z,3.17
2023-03-26T14:49:09.727Z,3.17
2023-03-26T14:51:59.272Z,2.27
2023-03-26T14:54:33.386Z,3.13
2023-03-26T14:57:28.888Z,2.47
2023-03-26T15:00:29.225Z,2.43
2023-03-26T15:03:29.666Z,2.50
2023-03-26T15:06:17.805Z,3.93
2023-03-26T15:08:58.595Z,2.60
2023-03-26T15:11:45.280Z,3.20
2023-03-26T15:14:26.867Z,2.70
2023-03-26T15:17:31.850Z,2.70
2023-03-26T15:20:35.914Z,3.00
2023-03-26T15:23:47.297Z,2.83
2023-03-26T15:26:50.977Z,3.27
2023-03-26T15:29:52.654Z,2.30
2023-03-26T15:32:57.017Z,2.23
2023-03-26T15:35:48.650Z,2.17
2023-03-26T15:38:42.940Z,2.37
2023-03-26T15:41:19.328Z,2.50
2023-03-26T15:46:46.466Z,2.33
2023-03-26T15:49:39.741Z,2.50
2023-03-26T15:52:19.517Z,2.40
2023-03-26T15:55:09.429Z,1.97
2023-03-26T15:57:46.811Z,1.97
2023-03-26T16:00:23.301Z,2.30
2023-03-26T16:02:53.561Z,1.70
2023-03-26T16:05:47.596Z,2.43
2023-03-26T16:08:39.140Z,1.57
2023-03-26T16:11:12.365Z,1.73
2023-03-26T16:14:12.684Z,2.70
2023-03-26T16:16:52.713Z,1.47
2023-03-26T16:19:19.326Z,2.00
2023-03-26T16:22:00.222Z,2.13
2023-03-26T16:24:30.605Z,2.03
2023-03-26T16:27:07.873Z,1.63
2023-03-26T16:30:00.511Z,1.30
2023-03-26T16:32:28.816Z,2.03
2023-03-26T16:35:14.188Z,1.73
2023-03-26T16:38:04.629Z,1.23
2023-03-26T16:40:59.971Z,2.00
2023-03-26T16:43:43.619Z,1.43
2023-03-26T16:46:26.214Z,1.00
2023-03-26T16:49:17.093Z,1.83
2023-03-26T16:52:14.799Z,2.07
2023-03-26T16:55:02.219Z,1.30
2023-03-26T16:57:41.235Z,1.33
2023-03-26T17:00:16.332Z,1.50
2023-03-26T17:03:15.825Z,1.87
2023-03-26T17:05:56.331Z,1.80
2023-03-26T17:08:42.501Z,1.63
2023-03-26T17:11:23.679Z,1.70
2023-03-26T17:14:07.770Z,1.50
2023-03-26T17:16:50.341Z,1.47
2023-03-26T17:19:39.349Z,1.60
2023-03-26T17:22:23.680Z,1.67
2023-03-26T17:25:25.000Z,1.33
2023-03-26T17:28:14.647Z,1.30
2023-03-26T17:30:50.459Z,1.70
2023-03-26T17:33:26.905Z,1.83
2023-03-26T17:36:11.719Z,1.47
2023-03-26T17:38:45.505Z,1.63
2023-03-26T17:41:15.813Z,2.13
2023-03-26T17:43:50.139Z,1.70
2023-03-26T17:46:41.989Z,1.67
2023-03-26T17:49:17.900Z,2.47
2023-03-26T17:52:16.953Z,2.17
2023-03-26T17:54:49.913Z,1.97
2023-03-26T17:57:22.469Z,1.77
2023-03-26T17:59:52.996Z,1.77
2023-03-26T18:02:24.575Z,2.33
2023-03-26T18:04:55.432Z,1.90
2023-03-26T18:07:46.341Z,2.00
2023-03-26T18:10:33.101Z,1.90
2023-03-26T18:13:46.949Z,1.97
2023-03-26T18:16:17.124Z,2.20
2023-03-26T18:18:59.153Z,1.60
2023-03-26T18:21:36.396Z,1.70
2023-03-26T18:24:06.193Z,1.80
2023-03-26T18:26:42.477Z,2.13
2023-03-26T18:29:29.358Z,1.60
2023-03-26T18:32:01.062Z,1.60
2023-03-26T18:34:33.062Z,1.57
2023-03-26T18:37:14.925Z,1.47
2023-03-26T18:40:02.062Z,2.50
2023-03-26T18:42:31.621Z,1.60
2023-03-26T18:45:04.661Z,1.90
2023-03-26T18:47:32.007Z,1.80
2023-03-26T18:49:59.685Z,1.50
2023-03-26T18:52:28.694Z,1.90
2023-03-26T18:54:56.819Z,2.37
2023-03-26T18:57:26.346Z,2.13
2023-03-26T18:59:55.930Z,2.30
2023-03-26T19:02:24.347Z,1.90
2023-03-26T19:04:54.163Z,1.83
2023-03-26T19:07:24.385Z,1.83
2023-03-26T19:09:56.143Z,2.67
2023-03-26T19:12:29.293Z,1.63
2023-03-26T19:15:21.712Z,1.77
2023-03-26T19:17:53.255Z,1.60
2023-03-26T19:20:27.260Z,1.60
2023-03-26T19:22:55.210Z,1.37
2023-03-26T19:25:25.471Z,1.60
2023-03-26T19:27:52.411Z,1.80
2023-03-26T19:30:29.340Z,1.20
2023-03-26T19:33:13.169Z,1.50
2023-03-26T19:35:42.122Z,1.87
2023-03-26T19:38:23.138Z,1.60
2023-03-26T19:40:52.309Z,2.10
2023-03-26T19:43:19.220Z,1.20
2023-03-26T19:46:00.564Z,1.30
2023-03-26T19:48:45.953Z,1.80
2023-03-26T19:51:26.083Z,1.50
2023-03-26T19:53:55.365Z,1.57
2023-03-26T19:56:22.718Z,1.50
2023-03-26T19:58:52.618Z,1.73
2023-03-26T20:01:23.547Z,1.70
2023-03-26T20:03:59.906Z,1.40
2023-03-26T20:06:42.477Z,1.37
2023-03-26T20:09:17.884Z,1.40
2023-03-26T20:11:44.472Z,1.47
2023-03-26T20:14:16.790Z,1.53
2023-03-26T20:16:45.399Z,1.30
2023-03-26T20:19:14.224Z,2.00
2023-03-26T20:21:41.654Z,1.47
2023-03-26T20:24:16.319Z,1.30
2023-03-26T20:26:43.674Z,1.57
2023-03-26T20:29:11.619Z,1.60
2023-03-26T20:31:39.822Z,1.93
2023-03-26T20:34:10.018Z,1.83
2023-03-26T20:36:36.870Z,2.03
2023-03-26T20:39:07.656Z,2.07
2023-03-26T20:41:34.959Z,1.60
2023-03-26T20:44:03.589Z,1.53
2023-03-26T20:46:31.647Z,1.80
2023-03-26T20:48:59.478Z,1.77
2023-03-26T20:51:28.297Z,1.93
2023-03-26T20:53:55.986Z,1.40
2023-03-26T20:56:22.723Z,2.23
2023-03-26T20:59:09.870Z,1.70
2023-03-26T21:01:38.233Z,1.80
2023-03-26T21:04:05.476Z,1.90
2023-03-26T21:06:32.105Z,1.63
2023-03-26T21:08:58.876Z,1.90
2023-03-26T21:11:35.769Z,1.90
2023-03-26T21:14:18.427Z,2.27
2023-03-26T21:16:45.300Z,1.93
2023-03-26T21:19:12.297Z,1.90
2023-03-26T21:21:56.065Z,1.63
2023-03-26T21:24:29.682Z,2.33
2023-03-26T21:27:12.561Z,1.77
2023-03-26T21:29:39.328Z,1.80
2023-03-26T21:32:06.132Z,1.90
2023-03-26T21:34:33.591Z,1.70
2023-03-26T21:37:01.400Z,1.70
2023-03-26T21:39:28.881Z,2.10
2023-03-26T21:42:04.720Z,1.60
2023-03-26T21:44:33.613Z,1.73
2023-03-26T21:47:00.632Z,1.97
2023-03-26T21:49:27.737Z,1.53
2023-03-26T21:51:54.394Z,1.73
2023-03-26T21:54:27.976Z,1.70
2023-03-26T21:57:15.378Z,1.87
2023-03-26T21:59:47.281Z,2.27
2023-03-26T22:02:39.581Z,1.70
2023-03-26T22:05:14.465Z,1.80
2023-03-26T22:07:55.992Z,2.20
2023-03-26T22:10:23.256Z,1.90
2023-03-26T22:12:50.200Z,1.80
2023-03-26T22:15:19.244Z,1.57
2023-03-26T22:17:53.786Z,1.63
2023-03-26T22:20:24.304Z,1.60
2023-03-26T22:22:53.043Z,1.83
2023-03-26T22:25:21.565Z,3.00
2023-03-26T22:27:49.255Z,1.47
2023-03-26T22:30:16.657Z,1.87
2023-03-26T22:32:43.427Z,1.47
2023-03-26T22:35:10.486Z,1.77
2023-03-26T22:37:37.222Z,1.43
2023-03-26T22:40:08.208Z,1.80
2023-03-26T22:42:37.686Z,2.30
2023-03-26T22:45:04.821Z,4.33
2023-03-26T22:47:33.732Z,1.27
2023-03-26T22:50:00.597Z,1.83
2023-03-26T22:52:27.828Z,1.90
2023-03-26T22:54:54.817Z,1.50
2023-03-26T22:57:24.334Z,2.13
2023-03-26T22:59:51.865Z,1.63
2023-03-26T23:02:19.266Z,1.80
2023-03-26T23:04:47.710Z,1.33
2023-03-26T23:07:14.891Z,1.67
2023-03-26T23:09:41.546Z,1.87
2023-03-26T23:12:08.103Z,1.37
2023-03-26T23:14:34.501Z,1.40
2023-03-26T23:17:01.529Z,1.47
2023-03-26T23:19:29.857Z,1.73
2023-03-26T23:21:57.550Z,1.70
2023-03-26T23:24:26.337Z,1.33
2023-03-26T23:26:53.210Z,1.40
2023-03-26T23:29:21.021Z,1.00
2023-03-26T23:31:47.929Z,1.70
2023-03-26T23:34:16.198Z,2.27
2023-03-26T23:36:44.730Z,1.80
2023-03-26T23:39:11.250Z,3.10
2023-03-26T23:41:37.994Z,2.10
2023-03-26T23:44:04.505Z,2.67
2023-03-26T23:46:34.746Z,2.27
2023-03-26T23:49:04.916Z,2.07
2023-03-26T23:51:32.080Z,1.70
2023-03-26T23:53:59.671Z,1.70
2023-03-26T23:56:27.820Z,2.00
2023-03-26T23:58:55.076Z,1.60
